createdAt,value
2023-05-07T00:00:31.333Z,2.57
2023-05-07T00:02:59.882Z,2.63
2023-05-07T00:05:28.262Z,3.20
2023-05-07T00:07:58.460Z,5.60
2023-05-07T00:10:28.284Z,4.23
2023-05-07T00:12:58.062Z,3.90
2023-05-07T00:15:26.473Z,3.13
2023-05-07T00:17:55.583Z,7.80
2023-05-07T00:20:23.973Z,4.00
2023-05-07T00:22:52.333Z,3.13
2023-05-07T00:25:21.485Z,2.90
2023-05-07T00:27:49.857Z,3.43
2023-05-07T00:30:19.751Z,2.53
2023-05-07T00:32:50.099Z,6.00
2023-05-07T00:35:18.534Z,3.43
2023-05-07T00:37:46.966Z,3.00
2023-05-07T00:40:15.532Z,3.37
2023-05-07T00:42:48.302Z,3.03
2023-05-07T00:45:17.853Z,3.33
2023-05-07T00:47:47.874Z,3.07
2023-05-07T00:50:16.498Z,4.93
2023-05-07T00:52:45.591Z,2.90
2023-05-07T00:55:15.614Z,3.00
2023-05-07T00:57:44.259Z,4.00
2023-05-07T01:00:14.552Z,5.57
2023-05-07T01:02:43.388Z,4.93
2023-05-07T01:05:16.489Z,3.43
2023-05-07T01:07:46.358Z,3.70
2023-05-07T01:10:15.694Z,2.90
2023-05-07T01:12:45.601Z,4.27
2023-05-07T01:15:14.332Z,3.80
2023-05-07T01:17:44.149Z,3.30
2023-05-07T01:20:21.957Z,3.53
2023-05-07T01:22:55.584Z,3.90
2023-05-07T01:25:24.232Z,5.00
2023-05-07T01:27:55.489Z,4.00
2023-05-07T01:30:30.720Z,5.00
2023-05-07T01:33:06.098Z,4.83
2023-05-07T01:35:39.942Z,3.73
2023-05-07T01:38:10.541Z,4.00
2023-05-07T01:40:38.857Z,4.30
2023-05-07T01:43:08.038Z,3.60
2023-05-07T01:45:38.696Z,4.20
2023-05-07T01:48:08.137Z,4.80
2023-05-07T01:50:38.025Z,3.93
2023-05-07T01:53:06.660Z,3.50
2023-05-07T01:55:37.823Z,4.17
2023-05-07T01:58:06.549Z,4.33
2023-05-07T02:00:35.365Z,5.30
2023-05-07T02:03:03.976Z,4.00
2023-05-07T02:05:48.879Z,3.80
2023-05-07T02:08:37.601Z,3.27
2023-05-07T02:11:07.420Z,3.47
2023-05-07T02:13:37.334Z,3.77
2023-05-07T02:16:06.774Z,4.83
2023-05-07T02:18:36.737Z,4.13
2023-05-07T02:21:05.441Z,7.03
2023-05-07T02:23:34.264Z,3.40
2023-05-07T02:26:03.967Z,3.60
2023-05-07T02:28:34.198Z,4.70
2023-05-07T02:31:05.147Z,3.93
2023-05-07T02:33:35.708Z,3.53
2023-05-07T02:36:09.732Z,4.17
2023-05-07T02:38:44.498Z,2.87
2023-05-07T02:41:12.898Z,3.57
2023-05-07T02:43:42.648Z,2.77
2023-05-07T02:46:12.367Z,3.80
2023-05-07T02:48:44.564Z,3.30
2023-05-07T02:51:13.458Z,4.10
2023-05-07T02:53:44.133Z,3.73
2023-05-07T02:56:12.505Z,3.57
2023-05-07T02:58:43.100Z,3.00
2023-05-07T03:01:13.162Z,3.00
2023-05-07T03:03:48.795Z,4.50
2023-05-07T03:06:17.685Z,3.13
2023-05-07T03:08:46.075Z,6.23
2023-05-07T03:11:14.467Z,9.10
2023-05-07T03:13:44.149Z,2.60
2023-05-07T03:16:12.823Z,2.70
2023-05-07T03:18:41.333Z,2.77
2023-05-07T03:21:09.866Z,4.10
2023-05-07T03:23:38.169Z,3.00
2023-05-07T03:26:06.538Z,2.93
2023-05-07T03:28:34.901Z,3.23
2023-05-07T03:31:08.191Z,3.43
2023-05-07T03:33:36.945Z,2.83
2023-05-07T03:36:06.731Z,2.80
2023-05-07T03:38:35.136Z,3.07
2023-05-07T03:41:03.545Z,3.07
2023-05-07T03:43:32.345Z,2.50
2023-05-07T03:46:08.269Z,2.90
2023-05-07T03:48:37.020Z,2.30
2023-05-07T03:51:05.974Z,2.83
2023-05-07T03:53:35.557Z,2.70
2023-05-07T03:56:04.285Z,2.37
2023-05-07T03:58:37.047Z,2.70
2023-05-07T04:01:13.541Z,3.70
2023-05-07T04:03:42.206Z,2.73
2023-05-07T04:06:10.709Z,2.50
2023-05-07T04:08:39.161Z,5.10
2023-05-07T04:11:08.848Z,2.87
2023-05-07T04:13:39.194Z,2.90
2023-05-07T04:16:12.404Z,2.30
2023-05-07T04:18:41.352Z,2.03
2023-05-07T04:21:16.796Z,3.13
2023-05-07T04:23:46.030Z,2.90
2023-05-07T04:26:17.268Z,2.63
2023-05-07T04:28:46.925Z,2.93
2023-05-07T04:31:18.073Z,3.10
2023-05-07T04:33:51.700Z,4.37
2023-05-07T04:36:20.511Z,3.63
2023-05-07T04:38:58.601Z,3.00
2023-05-07T04:41:27.845Z,4.10
2023-05-07T04:43:56.526Z,4.30
2023-05-07T04:46:28.087Z,3.03
2023-05-07T04:48:58.998Z,3.20
2023-05-07T04:51:29.038Z,2.87
2023-05-07T04:53:57.721Z,2.63
2023-05-07T04:56:26.964Z,2.97
2023-05-07T04:58:55.327Z,3.70
2023-05-07T05:01:24.212Z,2.60
2023-05-07T05:03:54.052Z,2.40
2023-05-07T05:06:22.821Z,6.90
2023-05-07T05:08:52.757Z,2.50
2023-05-07T05:11:21.876Z,3.03
2023-05-07T05:13:50.664Z,2.70
2023-05-07T05:16:22.095Z,3.17
2023-05-07T05:18:52.556Z,3.80
2023-05-07T05:21:23.209Z,2.60
2023-05-07T05:23:55.518Z,2.57
2023-05-07T05:26:26.892Z,2.93
2023-05-07T05:28:55.838Z,2.50
2023-05-07T05:31:26.399Z,4.20
2023-05-07T05:33:55.017Z,3.00
2023-05-07T05:36:24.970Z,2.60
2023-05-07T05:38:57.340Z,2.70
2023-05-07T05:41:26.064Z,2.63
2023-05-07T05:43:54.881Z,5.63
2023-05-07T05:46:24.280Z,3.03
2023-05-07T05:48:53.712Z,2.70
2023-05-07T05:51:24.491Z,3.07
2023-05-07T05:53:53.066Z,3.10
2023-05-07T05:56:22.339Z,2.70
2023-05-07T05:58:50.881Z,2.60
2023-05-07T06:01:20.129Z,2.93
2023-05-07T06:03:50.775Z,2.90
2023-05-07T06:06:19.467Z,19.87
2023-05-07T06:08:49.742Z,2.93
2023-05-07T06:11:23.420Z,2.80
2023-05-07T06:13:52.201Z,3.60
2023-05-07T06:16:20.757Z,3.03
2023-05-07T06:18:50.290Z,2.37
2023-05-07T06:21:18.939Z,2.77
2023-05-07T06:23:47.315Z,3.60
2023-05-07T06:26:17.758Z,2.90
2023-05-07T06:28:48.729Z,6.13
2023-05-07T06:31:21.533Z,3.00
2023-05-07T06:34:04.383Z,3.27
2023-05-07T06:36:37.328Z,3.57
2023-05-07T06:39:17.067Z,2.83
2023-05-07T06:41:46.858Z,2.90
2023-05-07T06:44:25.555Z,2.40
2023-05-07T06:47:14.388Z,2.97
2023-05-07T06:49:44.483Z,3.57
2023-05-07T06:52:16.452Z,3.47
2023-05-07T06:54:45.323Z,2.20
2023-05-07T06:57:18.564Z,3.73
2023-05-07T06:59:46.983Z,2.13
2023-05-07T07:02:18.224Z,2.30
2023-05-07T07:04:47.898Z,1.90
2023-05-07T07:07:17.039Z,2.57
2023-05-07T07:09:48.245Z,2.60
2023-05-07T07:12:21.017Z,2.03
2023-05-07T07:14:49.631Z,2.93
2023-05-07T07:17:18.475Z,2.17
2023-05-07T07:19:47.110Z,2.87
2023-05-07T07:22:15.611Z,2.60
2023-05-07T07:24:44.428Z,2.40
2023-05-07T07:27:15.025Z,1.90
2023-05-07T07:29:44.981Z,2.80
2023-05-07T07:32:14.009Z,2.00
2023-05-07T07:34:43.075Z,3.10
2023-05-07T07:37:11.789Z,2.33
2023-05-07T07:39:40.518Z,2.30
2023-05-07T07:42:10.331Z,2.60
2023-05-07T07:44:40.875Z,2.93
2023-05-07T07:47:13.381Z,1.90
2023-05-07T07:49:43.642Z,2.40
2023-05-07T07:52:12.702Z,2.53
2023-05-07T07:54:42.265Z,2.70
2023-05-07T07:57:10.898Z,2.83
2023-05-07T07:59:40.669Z,2.20
2023-05-07T08:02:10.266Z,2.20
2023-05-07T08:04:40.818Z,2.37
2023-05-07T08:07:10.472Z,3.20
2023-05-07T08:09:42.929Z,2.63
2023-05-07T08:12:12.678Z,3.93
2023-05-07T08:14:41.740Z,3.00
2023-05-07T08:17:11.375Z,2.00
2023-05-07T08:19:41.912Z,3.00
2023-05-07T08:22:13.762Z,3.00
2023-05-07T08:24:42.458Z,2.40
2023-05-07T08:27:11.403Z,2.30
2023-05-07T08:29:41.881Z,2.10
2023-05-07T08:32:10.870Z,2.33
2023-05-07T08:34:40.226Z,1.83
2023-05-07T08:37:10.851Z,2.87
2023-05-07T08:39:40.001Z,2.27
2023-05-07T08:42:17.280Z,1.70
2023-05-07T08:44:48.098Z,1.80
2023-05-07T08:47:22.076Z,2.23
2023-05-07T08:49:52.310Z,1.73
2023-05-07T08:52:22.413Z,1.67
2023-05-07T08:54:51.326Z,1.30
2023-05-07T08:57:20.979Z,1.77
2023-05-07T08:59:49.711Z,1.60
2023-05-07T09:02:19.263Z,1.53
2023-05-07T09:04:48.324Z,1.60
2023-05-07T09:07:16.981Z,1.73
2023-05-07T09:09:48.907Z,1.80
2023-05-07T09:12:18.867Z,1.50
2023-05-07T09:14:48.068Z,1.40
2023-05-07T09:17:17.859Z,2.03
2023-05-07T09:19:47.618Z,1.60
2023-05-07T09:22:17.343Z,1.47
2023-05-07T09:24:58.310Z,1.33
2023-05-07T09:27:29.343Z,1.73
2023-05-07T09:29:59.049Z,1.20
2023-05-07T09:32:28.288Z,1.97
2023-05-07T09:35:00.405Z,1.20
2023-05-07T09:37:33.536Z,1.30
2023-05-07T09:40:04.926Z,1.40
2023-05-07T09:42:33.388Z,1.70
2023-05-07T09:45:08.433Z,1.83
2023-05-07T09:47:42.977Z,1.43
2023-05-07T09:50:14.767Z,1.93
2023-05-07T09:52:44.489Z,1.70
2023-05-07T09:55:16.157Z,1.20
2023-05-07T09:57:45.862Z,1.40
2023-05-07T10:00:16.520Z,1.40
2023-05-07T10:02:53.143Z,1.20
2023-05-07T10:05:29.479Z,2.27
2023-05-07T10:08:03.930Z,2.10
2023-05-07T10:10:36.346Z,1.33
2023-05-07T10:13:11.674Z,1.50
2023-05-07T10:15:43.984Z,1.30
2023-05-07T10:18:15.822Z,1.70
2023-05-07T10:20:49.740Z,1.70
2023-05-07T10:23:25.734Z,1.63
2023-05-07T10:26:01.224Z,1.50
2023-05-07T10:28:35.549Z,2.17
2023-05-07T10:31:26.789Z,1.90
2023-05-07T10:33:58.309Z,1.70
2023-05-07T10:36:28.910Z,1.97
2023-05-07T10:38:57.887Z,1.40
2023-05-07T10:41:28.428Z,1.83
2023-05-07T10:43:56.937Z,1.77
2023-05-07T10:46:30.542Z,1.83
2023-05-07T10:49:15.182Z,3.73
2023-05-07T10:52:14.052Z,1.40
2023-05-07T10:54:44.841Z,1.30
2023-05-07T10:57:38.498Z,1.73
2023-05-07T11:00:50.245Z,1.30
2023-05-07T11:03:25.909Z,1.50
2023-05-07T11:06:14.821Z,1.50
2023-05-07T11:08:58.387Z,1.70
2023-05-07T11:11:52.186Z,1.50
2023-05-07T11:14:47.457Z,1.20
2023-05-07T11:17:55.245Z,1.10
2023-05-07T11:20:52.276Z,1.40
2023-05-07T11:24:00.755Z,1.53
2023-05-07T11:26:48.217Z,2.40
2023-05-07T11:29:21.574Z,1.20
2023-05-07T11:31:56.387Z,1.10
2023-05-07T11:34:29.042Z,1.33
2023-05-07T11:37:01.477Z,1.30
2023-05-07T11:40:06.650Z,1.27
2023-05-07T11:42:36.778Z,1.23
2023-05-07T11:45:06.938Z,2.30
2023-05-07T11:47:37.009Z,1.80
2023-05-07T11:50:08.574Z,1.80
2023-05-07T11:52:37.569Z,2.10
2023-05-07T11:55:06.749Z,1.30
2023-05-07T11:57:35.954Z,2.00
2023-05-07T12:00:06.418Z,0.97
2023-05-07T12:02:43.221Z,1.33
2023-05-07T12:05:12.215Z,1.50
2023-05-07T12:07:40.911Z,1.30
2023-05-07T12:10:10.461Z,1.73
2023-05-07T12:12:42.943Z,1.30
2023-05-07T12:15:12.462Z,1.53
2023-05-07T12:17:42.631Z,1.47
2023-05-07T12:20:12.428Z,0.90
2023-05-07T12:22:40.833Z,1.30
2023-05-07T12:25:10.126Z,1.20
2023-05-07T12:27:41.321Z,1.37
2023-05-07T12:30:12.857Z,1.30
2023-05-07T12:32:42.599Z,1.67
2023-05-07T12:35:11.307Z,1.77
2023-05-07T12:37:39.730Z,1.30
2023-05-07T12:40:10.092Z,1.37
2023-05-07T12:42:39.550Z,1.17
2023-05-07T12:45:12.506Z,3.37
2023-05-07T12:47:46.580Z,1.07
2023-05-07T12:50:16.383Z,1.03
2023-05-07T12:52:46.366Z,1.20
2023-05-07T12:55:16.917Z,1.23
2023-05-07T12:57:48.080Z,1.40
2023-05-07T13:00:17.372Z,1.73
2023-05-07T13:02:48.126Z,1.80
2023-05-07T13:05:16.507Z,1.27
2023-05-07T13:07:55.683Z,1.27
2023-05-07T13:10:24.927Z,1.53
2023-05-07T13:12:53.863Z,1.63
2023-05-07T13:15:22.694Z,1.77
2023-05-07T13:17:52.469Z,1.40
2023-05-07T13:20:20.888Z,2.03
2023-05-07T13:22:49.202Z,3.37
2023-05-07T13:25:20.566Z,2.70
2023-05-07T13:27:54.019Z,1.67
2023-05-07T13:30:31.307Z,1.40
2023-05-07T13:33:00.990Z,2.63
2023-05-07T13:35:29.523Z,3.33
2023-05-07T13:37:57.794Z,1.63
2023-05-07T13:40:27.177Z,1.40
2023-05-07T13:42:56.460Z,2.40
2023-05-07T13:45:26.859Z,1.60
2023-05-07T13:47:55.588Z,1.40
2023-05-07T13:50:25.594Z,2.13
2023-05-07T13:52:53.842Z,1.73
2023-05-07T13:55:23.923Z,1.83
2023-05-07T13:57:58.267Z,1.60
2023-05-07T14:00:27.280Z,2.10
2023-05-07T14:02:56.258Z,1.63
2023-05-07T14:05:26.269Z,2.00
2023-05-07T14:07:54.706Z,1.67
2023-05-07T14:10:23.211Z,2.13
2023-05-07T14:12:51.823Z,2.90
2023-05-07T14:15:20.416Z,2.17
2023-05-07T14:17:48.985Z,2.00
2023-05-07T14:20:17.466Z,2.27
2023-05-07T14:22:47.326Z,1.70
2023-05-07T14:25:16.260Z,1.67
2023-05-07T14:27:50.889Z,1.60
2023-05-07T14:30:20.118Z,1.23
2023-05-07T14:32:48.808Z,1.90
2023-05-07T14:35:17.336Z,1.70
2023-05-07T14:37:47.166Z,2.20
2023-05-07T14:40:15.847Z,2.17
2023-05-07T14:42:44.737Z,2.20
2023-05-07T14:45:13.948Z,2.20
2023-05-07T14:47:42.538Z,1.63
2023-05-07T14:50:11.667Z,2.07
2023-05-07T14:52:40.154Z,8.00
2023-05-07T14:55:11.266Z,2.07
2023-05-07T14:57:40.035Z,2.80
2023-05-07T15:00:10.781Z,2.20
2023-05-07T15:02:39.254Z,2.57
2023-05-07T15:05:08.836Z,2.50
2023-05-07T15:07:37.137Z,2.70
2023-05-07T15:10:06.015Z,3.50
2023-05-07T15:12:35.826Z,3.83
2023-05-07T15:15:04.688Z,3.70
2023-05-07T15:17:33.050Z,3.20
2023-05-07T15:20:01.551Z,6.47
2023-05-07T15:22:30.817Z,7.13
2023-05-07T15:25:00.182Z,6.90
2023-05-07T15:27:28.688Z,5.97
2023-05-07T15:29:58.399Z,7.10
2023-05-07T15:32:26.781Z,6.57
2023-05-07T15:34:55.166Z,7.33
2023-05-07T15:37:23.589Z,5.00
2023-05-07T15:39:51.969Z,4.43
2023-05-07T15:42:21.045Z,4.70
2023-05-07T15:44:49.757Z,4.47
2023-05-07T15:47:19.828Z,3.80
2023-05-07T15:49:50.649Z,3.53
2023-05-07T15:52:18.990Z,3.97
2023-05-07T15:54:47.420Z,4.40
2023-05-07T15:57:15.846Z,3.80
2023-05-07T15:59:44.135Z,3.87
2023-05-07T16:02:12.503Z,3.30
2023-05-07T16:04:42.251Z,4.03
2023-05-07T16:07:12.595Z,3.83
2023-05-07T16:09:41.400Z,3.40
2023-05-07T16:12:09.741Z,4.27
2023-05-07T16:14:38.250Z,3.07
2023-05-07T16:17:06.687Z,2.63
2023-05-07T16:19:35.090Z,3.73
2023-05-07T16:22:04.931Z,3.10
2023-05-07T16:24:33.457Z,6.10
2023-05-07T16:27:02.003Z,3.80
2023-05-07T16:29:30.455Z,7.63
2023-05-07T16:31:59.381Z,4.33
2023-05-07T16:34:29.002Z,5.00
2023-05-07T16:36:58.487Z,3.37
2023-05-07T16:39:28.238Z,3.97
2023-05-07T16:41:56.599Z,4.53
2023-05-07T16:44:25.078Z,3.50
2023-05-07T16:46:54.158Z,3.97
2023-05-07T16:49:22.648Z,7.17
2023-05-07T16:51:51.357Z,4.00
2023-05-07T16:54:19.740Z,4.37
2023-05-07T16:56:49.488Z,4.40
2023-05-07T16:59:18.021Z,4.53
2023-05-07T17:01:46.475Z,6.30
2023-05-07T17:04:14.849Z,4.23
2023-05-07T17:06:43.380Z,5.70
2023-05-07T17:09:12.144Z,4.77
2023-05-07T17:11:40.541Z,4.83
2023-05-07T17:14:11.355Z,4.40
2023-05-07T17:16:39.843Z,5.00
2023-05-07T17:19:08.367Z,5.80
2023-05-07T17:21:36.700Z,4.37
2023-05-07T17:24:05.551Z,4.50
2023-05-07T17:26:36.352Z,4.67
2023-05-07T17:29:04.851Z,5.73
2023-05-07T17:31:34.525Z,5.87
2023-05-07T17:34:03.112Z,4.30
2023-05-07T17:36:31.513Z,5.57
2023-05-07T17:38:59.829Z,5.70
2023-05-07T17:41:28.240Z,5.07
2023-05-07T17:43:56.649Z,6.70
2023-05-07T17:46:25.065Z,7.27
2023-05-07T17:48:54.832Z,6.23
2023-05-07T17:51:23.165Z,4.63
2023-05-07T17:53:51.641Z,6.30
2023-05-07T17:56:20.190Z,6.53
2023-05-07T18:01:23.500Z,6.43
2023-05-07T18:03:52.086Z,6.53
2023-05-07T18:06:23.279Z,5.97
2023-05-07T18:08:51.778Z,6.03
2023-05-07T18:11:20.099Z,6.83
2023-05-07T18:13:48.433Z,5.70
2023-05-07T18:16:18.538Z,6.80
2023-05-07T18:18:47.170Z,6.40
2023-05-07T18:21:18.894Z,6.20
2023-05-07T18:23:49.483Z,6.00
2023-05-07T18:26:18.514Z,6.80
2023-05-07T18:28:47.146Z,6.20
2023-05-07T18:31:15.764Z,5.47
2023-05-07T18:33:44.324Z,5.70
2023-05-07T18:36:13.115Z,6.10
2023-05-07T18:38:42.734Z,5.97
2023-05-07T18:41:12.519Z,6.70
2023-05-07T18:43:40.878Z,5.50
2023-05-07T18:46:09.372Z,5.57
2023-05-07T18:48:37.798Z,6.10
2023-05-07T18:51:06.068Z,6.53
2023-05-07T18:53:34.526Z,7.77
2023-05-07T18:56:03.346Z,7.33
2023-05-07T18:58:34.513Z,9.50
2023-05-07T19:01:03.445Z,7.13
2023-05-07T19:03:31.838Z,7.70
2023-05-07T19:06:00.334Z,9.03
2023-05-07T19:08:29.358Z,7.00
2023-05-07T19:10:57.992Z,6.80
2023-05-07T19:13:27.621Z,7.40
2023-05-07T19:15:57.648Z,6.90
2023-05-07T19:18:26.038Z,6.50
2023-05-07T19:20:55.395Z,7.83
2023-05-07T19:23:23.999Z,5.97
2023-05-07T19:25:52.398Z,5.20
2023-05-07T19:28:20.979Z,7.30
2023-05-07T19:30:52.315Z,6.07
2023-05-07T19:33:22.095Z,4.83
2023-05-07T19:35:52.042Z,6.40
2023-05-07T19:38:20.517Z,5.20
2023-05-07T19:40:48.860Z,4.83
2023-05-07T19:43:17.490Z,5.73
2023-05-07T19:45:45.903Z,7.70
2023-05-07T19:48:15.168Z,8.10
2023-05-07T19:50:45.006Z,8.07
2023-05-07T19:53:13.671Z,8.60
2023-05-07T19:55:42.115Z,6.30
2023-05-07T19:58:10.588Z,5.20
2023-05-07T20:00:39.374Z,5.40
2023-05-07T20:03:08.882Z,12.03
2023-05-07T20:05:37.399Z,6.13
2023-05-07T20:08:08.429Z,5.73
2023-05-07T20:10:36.809Z,6.20
2023-05-07T20:13:05.440Z,5.97
2023-05-07T20:15:33.870Z,6.03
2023-05-07T20:18:02.405Z,5.03
2023-05-07T20:20:30.958Z,5.80
2023-05-07T20:22:59.406Z,5.67
2023-05-07T20:25:29.200Z,5.67
2023-05-07T20:27:58.126Z,6.00
2023-05-07T20:30:27.807Z,6.93
2023-05-07T20:32:56.245Z,6.37
2023-05-07T20:35:24.735Z,7.40
2023-05-07T20:37:53.471Z,6.83
2023-05-07T20:40:22.024Z,5.40
2023-05-07T20:42:52.693Z,6.13
2023-05-07T20:45:21.590Z,6.23
2023-05-07T20:47:50.018Z,8.60
2023-05-07T20:50:18.405Z,6.10
2023-05-07T20:52:47.012Z,5.67
2023-05-07T20:55:15.676Z,6.67
2023-05-07T20:57:44.063Z,6.60
2023-05-07T21:00:15.807Z,5.70
2023-05-07T21:02:45.556Z,6.10
2023-05-07T21:05:14.329Z,6.30
2023-05-07T21:07:42.731Z,6.47
2023-05-07T21:10:12.138Z,6.87
2023-05-07T21:12:40.962Z,7.23
2023-05-07T21:15:10.814Z,7.40
2023-05-07T21:17:40.689Z,7.23
2023-05-07T21:20:10.157Z,7.10
2023-05-07T21:22:38.584Z,6.30
2023-05-07T21:25:07.321Z,6.53
2023-05-07T21:27:35.713Z,7.00
2023-05-07T21:30:04.837Z,7.57
2023-05-07T21:32:33.417Z,6.90
2023-05-07T21:35:03.255Z,7.40
2023-05-07T21:37:31.607Z,6.20
2023-05-07T21:40:00.323Z,6.30
2023-05-07T21:42:28.924Z,6.47
2023-05-07T21:44:57.320Z,6.07
2023-05-07T21:47:25.701Z,6.53
2023-05-07T21:49:54.001Z,5.80
2023-05-07T21:52:26.002Z,7.10
2023-05-07T21:54:54.610Z,6.80
2023-05-07T21:57:23.238Z,6.47
2023-05-07T21:59:51.568Z,6.47
2023-05-07T22:02:20.116Z,6.70
2023-05-07T22:04:48.608Z,6.30
2023-05-07T22:07:17.008Z,5.90
2023-05-07T22:09:46.705Z,5.83
2023-05-07T22:12:15.121Z,5.43
2023-05-07T22:14:43.528Z,6.80
2023-05-07T22:17:11.917Z,6.40
2023-05-07T22:19:40.835Z,6.70
2023-05-07T22:22:09.231Z,6.77
2023-05-07T22:24:37.620Z,6.43
2023-05-07T22:27:07.324Z,6.97
2023-05-07T22:29:35.647Z,6.43
2023-05-07T22:32:04.138Z,5.60
2023-05-07T22:34:32.897Z,5.77
2023-05-07T22:37:01.187Z,6.27
2023-05-07T22:39:34.310Z,7.33
2023-05-07T22:42:03.317Z,5.80
2023-05-07T22:44:33.002Z,6.40
2023-05-07T22:47:01.330Z,7.03
2023-05-07T22:49:29.578Z,7.63
2023-05-07T22:51:57.866Z,6.07
2023-05-07T22:54:26.711Z,7.97
2023-05-07T22:56:55.292Z,6.90
2023-05-07T22:59:23.655Z,7.03
2023-05-07T23:01:53.392Z,5.93
2023-05-07T23:04:22.205Z,6.70
2023-05-07T23:06:50.649Z,7.80
2023-05-07T23:09:19.083Z,7.33
2023-05-07T23:11:47.470Z,7.13
2023-05-07T23:14:15.933Z,8.10
2023-05-07T23:16:44.281Z,7.10
2023-05-07T23:19:14.211Z,7.17
2023-05-07T23:21:42.583Z,8.10
2023-05-07T23:24:11.492Z,7.53
2023-05-07T23:26:39.970Z,8.07
2023-05-07T23:29:08.252Z,7.00
2023-05-07T23:31:36.716Z,8.50
2023-05-07T23:34:05.099Z,8.40
2023-05-07T23:36:34.786Z,7.63
2023-05-07T23:39:03.124Z,7.17
2023-05-07T23:41:31.990Z,7.60
2023-05-07T23:44:00.238Z,6.77
2023-05-07T23:46:28.829Z,10.40
2023-05-07T23:48:57.152Z,7.97
2023-05-07T23:51:25.518Z,8.10
2023-05-07T23:53:55.180Z,7.33
2023-05-07T23:56:23.867Z,6.93
2023-05-07T23:58:52.299Z,8.00
